LFKJ/AJA METAR and TAF weather

Enter ICAO airport designator
Station Type Date Time Source
LFKJ METAR 2020/01/19 20:00 UTC NOAA

LFKJ 192000Z AUTO VRB02KT CAVOK 07/03 Q1023 NOSIG


Station Type Date Time Source
LFKJ Decoded METAR 2020/01/19 20:00 UTC NOAA

Ajaccio, France (LFKJ) 41-55N 008-48E 9M
Jan 19, 2020 - 03:00 PM EST / 2020.01.19 2000 UTC
Wind: Variable at 2 MPH (2 KT):0
Visibility: greater than 7 mile(s):0
Temperature: 44 F (7 C)
Dew Point: 37 F (3 C)
Relative Humidity: 75%
Pressure (altimeter): 30.21 in. Hg (1023 hPa)
ob: LFKJ 192000Z AUTO VRB02KT CAVOK 07/03 Q1023 NOSIG
cycle: 20

Station Type Date Time Source
LFKJ TAF 2020/01/19 15:21 UTC NOAA

TAF LFKJ 191400Z 1915/2015 VRB05KT CAVOK
BECMG 2000/2003 04010KT
TEMPO 2003/2015 RA

Example: see airport list